Time;durP1;ratioP1;P1;durP2;ratioP2;P2;SDS_P1;SDS_P2;PMS_P1;PMS_P2;Temp;Humidity;BMP_temperature;BMP_pressure;BME280_temperature;BME280_humidity;BME280_pressure;Samples;Min_cycle;Max_cycle;Signal;HPM_P1;HPM_P2
2022/10/31 00:02:49;;;;;;;34.75;12.93;;;;;;;9.34;100.00;99367.13;4995113;28;20054;-60
2022/10/31 00:05:34;;;;;;;31.08;12.05;;;;;;;9.33;100.00;99373.28;4997498;28;20432;-63
2022/10/31 00:08:19;;;;;;;30.13;11.95;;;;;;;9.32;100.00;99379.44;4999551;28;20509;-62
2022/10/31 00:11:03;;;;;;;26.30;12.18;;;;;;;9.34;100.00;99378.44;5001048;28;20054;-60
2022/10/31 00:13:48;;;;;;;25.17;12.82;;;;;;;9.39;100.00;99369.47;5001332;28;20497;-59
2022/10/31 00:16:33;;;;;;;22.00;11.27;;;;;;;9.32;100.00;99382.06;4996186;28;20053;-64
2022/10/31 00:19:17;;;;;;;26.33;10.48;;;;;;;9.34;100.00;99377.56;4994518;28;20058;-60
2022/10/31 00:22:01;;;;;;;22.48;10.93;;;;;;;9.32;100.00;99385.50;4996729;28;20034;-64
2022/10/31 00:24:46;;;;;;;21.80;10.45;;;;;;;9.37;100.00;99374.78;4998361;28;20073;-60
2022/10/31 00:27:31;;;;;;;22.17;10.57;;;;;;;9.36;100.00;99378.34;4988135;28;20046;-60
2022/10/31 00:30:16;;;;;;;21.20;10.57;;;;;;;9.41;100.00;99380.72;4993787;28;20441;-60
2022/10/31 00:33:02;;;;;;;28.65;13.50;;;;;;;9.52;100.00;99380.13;4997537;28;20038;-59
2022/10/31 00:35:50;;;;;;;20.80;10.27;;;;;;;9.38;100.00;99379.13;4995063;28;20054;-60
2022/10/31 00:38:35;;;;;;;25.23;10.85;;;;;;;9.39;100.00;99383.41;4976606;28;20074;-60
2022/10/31 00:41:20;;;;;;;19.48;10.07;;;;;;;9.35;100.00;99379.28;4992230;28;20276;-60
2022/10/31 00:44:04;;;;;;;23.15;10.73;;;;;;;9.39;100.00;99379.94;4982354;28;20046;-60
2022/10/31 00:46:49;;;;;;;24.00;10.70;;;;;;;9.41;100.00;99376.34;4972629;28;20059;-60
2022/10/31 00:49:37;;;;;;;19.45;9.48;;;;;;;9.34;100.00;99375.81;4980078;28;20556;-61
2022/10/31 00:52:22;;;;;;;21.83;10.32;;;;;;;9.26;100.00;99383.22;4999460;28;20073;-59
2022/10/31 00:55:07;;;;;;;22.95;9.75;;;;;;;9.28;100.00;99376.16;4998583;28;20042;-59
2022/10/31 00:57:51;;;;;;;20.88;9.68;;;;;;;9.38;100.00;99373.88;4987963;28;20049;-59
2022/10/31 01:00:36;;;;;;;37.35;9.45;;;;;;;9.39;100.00;99372.94;4995988;28;20050;-59
2022/10/31 01:03:30;;;;;;;13.50;8.02;;;;;;;9.32;100.00;99371.63;4997823;28;20140;-60
2022/10/31 01:06:15;;;;;;;13.57;8.32;;;;;;;9.32;100.00;99374.22;4998883;28;20057;-59
2022/10/31 01:09:00;;;;;;;13.38;7.32;;;;;;;9.43;100.00;99382.34;4981191;28;20056;-60
2022/10/31 01:11:45;;;;;;;17.00;8.07;;;;;;;9.38;100.00;99383.50;4997566;28;20041;-59
2022/10/31 01:14:29;;;;;;;14.98;8.13;;;;;;;9.49;100.00;99384.63;4995352;28;20042;-59
2022/10/31 01:17:15;;;;;;;11.50;6.80;;;;;;;9.43;100.00;99373.63;4996754;28;20109;-59
2022/10/31 01:20:01;;;;;;;15.60;7.68;;;;;;;9.45;100.00;99374.41;4999193;28;20074;-60
2022/10/31 01:22:45;;;;;;;13.35;7.68;;;;;;;9.44;100.00;99370.94;4990272;28;20050;-60
2022/10/31 01:25:30;;;;;;;14.13;7.90;;;;;;;9.40;100.00;99366.78;4998274;28;20049;-60
2022/10/31 01:28:14;;;;;;;12.85;8.00;;;;;;;9.35;100.00;99367.03;4993339;28;20046;-61
2022/10/31 01:31:05;;;;;;;12.57;7.95;;;;;;;9.42;100.00;99361.47;4992321;28;20618;-61
2022/10/31 01:33:53;;;;;;;18.13;8.88;;;;;;;9.34;100.00;99370.59;4995246;28;20046;-60
2022/10/31 01:36:38;;;;;;;19.83;8.80;;;;;;;9.40;100.00;99368.56;5000743;28;20058;-59
2022/10/31 01:39:23;;;;;;;14.40;8.23;;;;;;;9.60;100.00;99360.47;4994049;28;20462;-59
2022/10/31 01:42:17;;;;;;;16.77;9.52;;;;;;;9.65;100.00;99357.59;4991665;28;20042;-59
2022/10/31 01:45:03;;;;;;;15.00;8.38;;;;;;;9.73;100.00;99351.94;4978412;28;20043;-63
2022/10/31 01:47:49;;;;;;;17.30;9.20;;;;;;;9.65;100.00;99362.84;4996284;28;20517;-60
2022/10/31 01:50:38;;;;;;;15.82;8.55;;;;;;;9.45;100.00;99354.31;4987392;28;20127;-61
2022/10/31 01:53:23;;;;;;;15.80;8.77;;;;;;;9.49;100.00;99355.00;4993420;28;20042;-58
2022/10/31 01:56:09;;;;;;;15.50;8.98;;;;;;;9.53;100.00;99353.06;4981073;28;20041;-61
2022/10/31 01:58:58;;;;;;;16.77;9.20;;;;;;;9.48;100.00;99350.69;4998802;28;20052;-63
2022/10/31 02:01:42;;;;;;;35.17;9.55;;;;;;;9.54;100.00;99339.03;4991208;28;20046;-58
2022/10/31 02:04:29;;;;;;;19.08;9.27;;;;;;;9.65;100.00;99341.06;4994056;28;20054;-59
2022/10/31 02:07:18;;;;;;;15.57;8.82;;;;;;;9.58;100.00;99341.41;4992332;28;20125;-59
2022/10/31 02:10:03;;;;;;;14.38;7.47;;;;;;;9.72;100.00;99330.19;4987443;28;20046;-60
2022/10/31 02:12:52;;;;;;;19.52;9.20;;;;;;;9.66;100.00;99333.13;4990659;28;20114;-60
2022/10/31 02:15:38;;;;;;;19.67;8.88;;;;;;;9.65;100.00;99347.13;4996892;28;20042;-59
2022/10/31 02:18:24;;;;;;;16.38;9.25;;;;;;;9.68;100.00;99336.50;5001491;28;20449;-59
2022/10/31 02:21:20;;;;;;;18.92;9.43;;;;;;;9.67;100.00;99339.19;4983887;28;20721;-60
2022/10/31 02:24:28;;;;;;;16.63;8.60;;;;;;;9.68;100.00;99349.59;4999042;28;20074;-59
2022/10/31 02:27:52;;;;;;;14.13;7.65;;;;;;;9.81;100.00;99344.50;4991238;28;20126;-59
2022/10/31 02:31:01;;;;;;;10.95;6.63;;;;;;;10.01;100.00;99345.16;4995947;28;20088;-63
2022/10/31 02:33:52;;;;;;;15.32;8.25;;;;;;;9.95;100.00;99346.38;4994803;28;20053;-60
2022/10/31 02:36:56;;;;;;;16.87;8.17;;;;;;;9.88;100.00;99349.38;4990097;28;20456;-59
2022/10/31 02:40:35;;;;;;;15.75;8.07;;;;;;;9.93;100.00;99347.38;4994007;28;20304;-60
2022/10/31 02:44:23;;;;;;;15.20;8.23;;;;;;;9.80;100.00;99345.44;4926849;29;20052;-59
2022/10/31 02:47:26;;;;;;;16.20;8.80;;;;;;;9.71;100.00;99348.59;4910216;29;20070;-60
2022/10/31 02:50:26;;;;;;;16.60;9.10;;;;;;;9.81;100.00;99348.91;4910842;29;20052;-59
2022/10/31 02:53:14;;;;;;;15.40;8.50;;;;;;;9.81;100.00;99348.91;4919062;29;20131;-61
2022/10/31 02:56:21;;;;;;;14.70;8.05;;;;;;;9.85;100.00;99353.03;4887841;29;20056;-60
2022/10/31 02:59:06;;;;;;;12.70;7.03;;;;;;;9.81;100.00;99354.16;4921895;29;20048;-61
2022/10/31 03:01:56;;;;;;;13.10;7.25;;;;;;;9.76;100.00;99361.41;4909637;29;20048;-59
2022/10/31 03:05:00;;;;;;;12.98;7.18;;;;;;;9.86;100.00;99357.31;4928913;29;20123;-60
2022/10/31 03:08:06;;;;;;;12.43;7.47;;;;;;;9.83;100.00;99360.97;4929442;29;20114;-62
2022/10/31 03:10:59;;;;;;;12.60;7.32;;;;;;;9.81;100.00;99359.38;4916014;29;20086;-59
2022/10/31 03:13:44;;;;;;;11.82;6.57;;;;;;;9.71;100.00;99362.50;4927310;29;20134;-60
2022/10/31 03:16:48;;;;;;;9.60;6.38;;;;;;;9.82;100.00;99363.69;4937689;28;20207;-59
2022/10/31 03:19:46;;;;;;;10.98;6.25;;;;;;;9.90;100.00;99371.09;4984481;28;20053;-63
2022/10/31 03:22:33;;;;;;;12.15;5.47;;;;;;;9.99;100.00;99362.72;4988423;28;20174;-62
2022/10/31 03:25:18;;;;;;;10.32;5.63;;;;;;;9.97;100.00;99362.81;4988703;28;20070;-59
2022/10/31 03:28:05;;;;;;;8.68;5.25;;;;;;;10.08;100.00;99367.44;4986116;28;20125;-59
2022/10/31 03:30:52;;;;;;;9.68;5.60;;;;;;;10.00;100.00;99364.41;4996359;28;20394;-59
2022/10/31 03:33:40;;;;;;;11.52;5.63;;;;;;;9.92;100.00;99364.81;4998544;28;20128;-60
2022/10/31 03:36:26;;;;;;;8.52;5.13;;;;;;;10.01;100.00;99370.47;4997635;28;20082;-59
2022/10/31 03:39:14;;;;;;;9.48;5.30;;;;;;;10.01;100.00;99367.84;4990724;28;20739;-64
2022/10/31 03:42:10;;;;;;;11.50;5.88;;;;;;;10.00;100.00;99372.28;4997542;28;20052;-63
2022/10/31 03:45:04;;;;;;;8.80;5.60;;;;;;;9.97;100.00;99362.81;5003157;28;20470;-59
2022/10/31 03:47:49;;;;;;;9.52;5.47;;;;;;;10.04;100.00;99365.06;4984250;28;20041;-61
2022/10/31 03:50:52;;;;;;;10.60;5.95;;;;;;;10.05;100.00;99369.38;4998169;28;20052;-60
2022/10/31 03:54:32;;;;;;;8.43;4.65;;;;;;;10.00;100.00;99372.28;4987424;28;20058;-63
2022/10/31 03:57:29;;;;;;;7.43;4.38;;;;;;;10.03;100.00;99363.38;4927279;29;20051;-59
2022/10/31 04:00:15;;;;;;;10.55;5.85;;;;;;;10.09;100.00;99363.03;4928381;29;20063;-58
2022/10/31 04:03:11;;;;;;;11.10;5.22;;;;;;;10.10;100.00;99365.56;4927281;29;20191;-58
2022/10/31 04:06:04;;;;;;;10.43;5.50;;;;;;;10.08;100.00;99367.44;4913943;29;20075;-58
2022/10/31 04:08:59;;;;;;;13.03;7.13;;;;;;;10.01;100.00;99366.09;4913745;29;20134;-62
2022/10/31 04:11:50;;;;;;;11.50;6.80;;;;;;;9.83;100.00;99370.59;4913458;29;20054;-59
2022/10/31 04:15:06;;;;;;;11.65;6.75;;;;;;;9.76;100.00;99374.50;4923790;29;20139;-59
2022/10/31 04:17:55;;;;;;;9.60;5.95;;;;;;;9.79;100.00;99374.31;4913941;29;20226;-58
2022/10/31 04:20:41;;;;;;;10.02;6.30;;;;;;;9.82;100.00;99368.91;4927285;29;20083;-59
2022/10/31 04:23:26;;;;;;;9.05;5.57;;;;;;;9.88;100.00;99371.19;4914036;29;20510;-59
2022/10/31 04:26:12;;;;;;;9.85;5.22;;;;;;;9.86;100.00;99376.50;4914005;29;20594;-58
2022/10/31 04:28:56;;;;;;;11.05;5.95;;;;;;;9.96;100.00;99375.97;4909524;29;20039;-59
2022/10/31 04:31:41;;;;;;;7.93;4.88;;;;;;;9.97;100.00;99373.28;4934158;28;20242;-59
2022/10/31 04:34:26;;;;;;;8.57;5.13;;;;;;;9.94;100.00;99373.44;4980015;28;20046;-60
2022/10/31 04:37:11;;;;;;;10.15;5.50;;;;;;;9.94;100.00;99364.78;4990044;28;20069;-59
2022/10/31 04:39:56;;;;;;;8.25;5.10;;;;;;;10.04;100.00;99372.91;4978757;28;20477;-61
2022/10/31 04:43:03;;;;;;;9.10;5.68;;;;;;;10.01;100.00;99373.09;4997855;28;20183;-63
2022/10/31 04:45:49;;;;;;;9.00;5.40;;;;;;;9.99;100.00;99381.03;4997057;28;20127;-59
2022/10/31 04:48:33;;;;;;;8.43;5.15;;;;;;;10.02;100.00;99380.84;4989913;28;20144;-59
2022/10/31 04:51:22;;;;;;;8.80;5.38;;;;;;;10.02;100.00;99375.63;4982161;28;20058;-59
2022/10/31 04:54:07;;;;;;;7.03;4.32;;;;;;;10.06;100.00;99379.78;4996213;28;20120;-58
2022/10/31 04:57:12;;;;;;;7.07;4.50;;;;;;;10.13;100.00;99382.03;4994036;28;20046;-58
2022/10/31 04:59:56;;;;;;;8.40;5.35;;;;;;;10.10;100.00;99388.31;4990205;28;20046;-62
2022/10/31 05:02:46;;;;;;;8.35;4.93;;;;;;;10.00;100.00;99385.34;4987020;28;20101;-60
2022/10/31 05:05:31;;;;;;;9.05;5.90;;;;;;;10.01;100.00;99388.81;4996899;28;20128;-59
2022/10/31 05:08:19;;;;;;;8.63;4.70;;;;;;;10.01;100.00;99397.50;4979441;28;20042;-59
2022/10/31 05:11:06;;;;;;;7.88;4.78;;;;;;;9.96;100.00;99397.78;4996417;28;20141;-59
2022/10/31 05:13:51;;;;;;;9.00;5.25;;;;;;;9.94;100.00;99391.78;4980402;28;20290;-57
2022/10/31 05:16:55;;;;;;;8.18;4.50;;;;;;;9.90;100.00;99389.41;4996346;28;20042;-60
2022/10/31 05:20:02;;;;;;;5.95;3.83;;;;;;;10.01;100.00;99391.41;4994123;28;20124;-62
2022/10/31 05:23:25;;;;;;;9.07;5.55;;;;;;;10.07;100.00;99396.34;4962057;28;20066;-64
2022/10/31 05:26:10;;;;;;;11.65;6.63;;;;;;;10.12;100.00;99396.06;4968847;28;20063;-60
2022/10/31 05:28:55;;;;;;;9.52;5.50;;;;;;;9.98;100.00;99397.69;4964926;28;20481;-59
2022/10/31 05:31:39;;;;;;;7.45;4.75;;;;;;;9.98;100.00;99395.91;4973982;28;20106;-63
2022/10/31 05:34:26;;;;;;;12.00;6.75;;;;;;;9.85;100.00;99397.53;4950806;28;20050;-60
2022/10/31 05:37:31;;;;;;;13.75;8.48;;;;;;;9.83;100.00;99402.00;4972792;28;20081;-57
2022/10/31 05:40:19;;;;;;;11.90;6.82;;;;;;;10.15;100.00;99393.28;4963669;28;20529;-55
2022/10/31 05:43:04;;;;;;;10.18;6.03;;;;;;;10.16;100.00;99408.03;4962608;28;20517;-58
2022/10/31 05:45:53;;;;;;;8.90;5.57;;;;;;;10.12;100.00;99403.94;4942124;28;20141;-59
2022/10/31 05:48:57;;;;;;;10.68;6.78;;;;;;;10.08;100.00;99411.94;4966208;28;20049;-61
2022/10/31 05:52:01;;;;;;;8.15;5.10;;;;;;;10.03;100.00;99415.75;4967715;28;20524;-61
2022/10/31 05:54:55;;;;;;;10.07;5.90;;;;;;;10.03;100.00;99415.75;4991759;28;20048;-58
2022/10/31 05:57:40;;;;;;;12.93;5.55;;;;;;;10.06;100.00;99410.34;4976816;28;20500;-60
2022/10/31 06:00:25;;;;;;;10.73;6.05;;;;;;;9.94;100.00;99407.47;4970066;28;20057;-60
2022/10/31 06:03:10;;;;;;;9.13;5.65;;;;;;;9.94;100.00;99417.13;4997328;28;20094;-59
2022/10/31 06:06:10;;;;;;;9.30;5.60;;;;;;;9.97;100.00;99414.31;4992774;28;20093;-59
2022/10/31 06:08:58;;;;;;;7.90;4.97;;;;;;;10.04;100.00;99414.81;4992811;28;20057;-61
2022/10/31 06:11:44;;;;;;;8.27;5.55;;;;;;;10.09;100.00;99420.63;4991496;28;20161;-59
2022/10/31 06:14:43;;;;;;;12.93;7.82;;;;;;;10.08;100.00;99426.81;4979828;28;20042;-61
2022/10/31 06:17:28;;;;;;;12.55;7.18;;;;;;;9.97;100.00;99424.78;4996509;28;20053;-59
2022/10/31 06:20:33;;;;;;;8.75;6.03;;;;;;;10.06;100.00;99426.03;4997804;28;20070;-63
2022/10/31 06:23:21;;;;;;;10.40;6.32;;;;;;;10.13;100.00;99426.53;4987696;28;20039;-57
2022/10/31 06:26:10;;;;;;;8.57;6.00;;;;;;;10.17;100.00;99428.03;4991153;28;20132;-58
2022/10/31 06:28:55;;;;;;;11.43;5.70;;;;;;;10.16;100.00;99427.22;4995730;28;20078;-58
2022/10/31 06:31:58;;;;;;;9.25;5.55;;;;;;;10.13;100.00;99424.78;4997730;28;20136;-50
2022/10/31 06:34:44;;;;;;;13.95;7.95;;;;;;;10.14;100.00;99433.47;5003792;28;20573;-55
2022/10/31 06:37:28;;;;;;;14.27;8.90;;;;;;;10.16;100.00;99432.47;4995484;28;20352;-57
2022/10/31 06:40:20;;;;;;;11.75;8.18;;;;;;;10.14;100.00;99433.47;4992317;28;20063;-59
2022/10/31 06:43:27;;;;;;;12.77;7.78;;;;;;;10.02;100.00;99438.44;4996353;28;20042;-61
2022/10/31 06:46:41;;;;;;;16.63;9.95;;;;;;;10.08;100.00;99437.28;4987595;28;20116;-62
2022/10/31 06:49:44;;;;;;;12.15;7.13;;;;;;;10.32;100.00;99437.66;4999676;28;20042;-58
2022/10/31 06:52:33;;;;;;;14.38;7.80;;;;;;;10.51;100.00;99438.44;4988645;28;20057;-60
2022/10/31 06:55:17;;;;;;;15.43;8.80;;;;;;;10.41;100.00;99443.31;4990310;28;20053;-62
2022/10/31 06:58:02;;;;;;;12.95;7.57;;;;;;;10.20;100.00;99454.91;4990761;28;20045;-57
2022/10/31 07:00:48;;;;;;;16.98;7.45;;;;;;;10.24;100.00;99452.97;4991887;28;20137;-59
2022/10/31 07:03:33;;;;;;;11.98;6.88;;;;;;;10.25;100.00;99459.88;4990277;28;20058;-60
2022/10/31 07:06:18;;;;;;;11.05;7.50;;;;;;;10.22;100.00;99462.69;4995633;28;20038;-58
2022/10/31 07:09:02;;;;;;;14.00;8.80;;;;;;;10.06;100.00;99468.78;5000188;28;20085;-60
2022/10/31 07:11:47;;;;;;;11.23;6.45;;;;;;;10.10;100.00;99464.22;4994887;28;20049;-59
2022/10/31 07:14:32;;;;;;;11.10;7.22;;;;;;;10.27;100.00;99471.13;4991555;28;20072;-62
2022/10/31 07:17:17;;;;;;;11.77;7.18;;;;;;;10.30;100.00;99468.34;4988173;28;20042;-59
2022/10/31 07:20:03;;;;;;;12.25;6.90;;;;;;;10.39;100.00;99464.38;4997236;28;20046;-60
2022/10/31 07:22:48;;;;;;;12.63;7.78;;;;;;;10.34;100.00;99472.47;4996056;28;20606;-59
2022/10/31 07:25:33;;;;;;;11.77;7.15;;;;;;;10.20;100.00;99478.47;4995204;28;20133;-61
2022/10/31 07:28:37;;;;;;;11.68;7.65;;;;;;;10.29;100.00;99477.13;4990710;28;20382;-60
2022/10/31 07:31:24;;;;;;;12.32;6.50;;;;;;;10.38;100.00;99470.50;5001724;28;20045;-59
2022/10/31 07:34:11;;;;;;;11.52;6.78;;;;;;;10.26;100.00;99468.59;4981811;28;20046;-61
2022/10/31 07:37:18;;;;;;;12.65;8.32;;;;;;;10.12;100.00;99472.81;4994648;28;20497;-59
2022/10/31 07:40:04;;;;;;;12.82;7.18;;;;;;;10.19;100.00;99476.81;4999834;28;20410;-60
2022/10/31 07:42:52;;;;;;;15.18;7.95;;;;;;;10.38;100.00;99470.50;4996344;28;20053;-60
2022/10/31 07:46:06;;;;;;;10.63;7.18;;;;;;;10.43;100.00;99467.66;4935171;29;20094;-61
2022/10/31 07:49:14;;;;;;;15.13;8.98;;;;;;;10.55;100.00;99464.34;4900692;29;20056;-62
2022/10/31 07:52:17;;;;;;;19.20;12.48;;;;;;;10.75;100.00;99454.50;4899451;29;20052;-61
2022/10/31 07:55:25;;;;;;;16.00;10.25;;;;;;;10.27;100.00;99470.28;4897681;29;20853;-64
2022/10/31 07:58:17;;;;;;;13.85;8.55;;;;;;;10.39;100.00;99459.13;4884426;29;20131;-59
2022/10/31 08:01:02;;;;;;;15.85;9.45;;;;;;;10.46;100.00;99462.25;4885398;29;20047;-62
2022/10/31 08:03:57;;;;;;;12.90;7.70;;;;;;;10.62;100.00;99469.25;4887769;29;20058;-61
2022/10/31 08:07:00;;;;;;;15.57;7.32;;;;;;;11.04;100.00;99467.66;4897165;29;20056;-61
2022/10/31 08:09:49;;;;;;;15.25;9.13;;;;;;;11.02;100.00;99466.06;4893599;29;20139;-62
2022/10/31 08:12:41;;;;;;;24.55;12.15;;;;;;;10.65;100.00;99469.06;4897749;29;20053;-59
2022/10/31 08:15:27;;;;;;;17.52;10.18;;;;;;;10.69;100.00;99467.97;4884184;29;20060;-62
2022/10/31 08:18:13;;;;;;;15.63;9.25;;;;;;;10.72;100.00;99462.53;4886223;29;20060;-64
2022/10/31 08:20:58;;;;;;;20.52;10.23;;;;;;;10.55;100.00;99468.75;4900228;29;20167;-58
2022/10/31 08:23:43;;;;;;;19.70;9.75;;;;;;;10.51;100.00;99464.63;4931793;28;20485;-60
2022/10/31 08:26:28;;;;;;;21.80;10.82;;;;;;;10.53;100.00;99468.84;4961874;28;20567;-58
2022/10/31 08:29:14;;;;;;;20.92;13.00;;;;;;;10.68;100.00;99472.34;4978265;28;21397;-59
2022/10/31 08:32:00;;;;;;;20.63;10.50;;;;;;;10.56;100.00;99467.84;4984411;28;20132;-59
2022/10/31 08:35:11;;;;;;;23.88;13.68;;;;;;;12.04;100.00;99466.03;4952146;28;20134;-59
2022/10/31 08:38:25;;;;;;;25.83;14.73;;;;;;;11.78;100.00;99469.34;4933906;28;20066;-60
2022/10/31 08:41:09;;;;;;;25.45;14.25;;;;;;;11.40;100.00;99469.94;4937548;28;20125;-59
2022/10/31 08:43:55;;;;;;;26.58;15.30;;;;;;;11.41;100.00;99467.22;4936899;28;20062;-60
2022/10/31 08:46:39;;;;;;;27.05;15.02;;;;;;;11.36;100.00;99473.69;4943416;28;20050;-60
2022/10/31 08:49:24;;;;;;;21.10;13.45;;;;;;;11.23;100.00;99468.34;4939629;28;20087;-59
2022/10/31 08:52:09;;;;;;;22.08;13.52;;;;;;;11.09;100.00;99467.38;4954919;28;20061;-61
2022/10/31 08:54:58;;;;;;;23.00;14.20;;;;;;;11.37;100.00;99472.75;4922504;29;20178;-60
2022/10/31 08:58:03;;;;;;;26.80;14.88;;;;;;;11.21;100.00;99464.03;4958407;28;20514;-63
2022/10/31 09:00:58;;;;;;;32.22;17.85;;;;;;;11.00;100.00;99465.31;4947603;28;20086;-62
2022/10/31 09:03:44;;;;;;;34.97;17.75;;;;;;;11.76;100.00;99467.78;4934944;28;20047;-59
2022/10/31 09:06:29;;;;;;;28.98;16.40;;;;;;;11.32;100.00;99471.28;4951377;28;20150;-61
2022/10/31 09:09:13;;;;;;;28.33;16.58;;;;;;;11.15;100.00;99468.78;4952513;28;20497;-60
2022/10/31 09:11:58;;;;;;;29.52;16.85;;;;;;;11.48;100.00;99472.94;4958266;28;20059;-60
2022/10/31 09:15:15;;;;;;;27.67;16.73;;;;;;;11.29;100.00;99474.03;4945099;28;20059;-62
2022/10/31 09:18:13;;;;;;;28.15;17.00;;;;;;;11.17;100.00;99470.41;4945832;28;20054;-60
2022/10/31 09:21:12;;;;;;;36.10;18.13;;;;;;;11.18;100.00;99474.69;4944131;28;20047;-61
2022/10/31 09:23:57;;;;;;;34.95;18.23;;;;;;;11.16;100.00;99475.75;4952773;28;20256;-61
2022/10/31 09:26:42;;;;;;;28.15;16.75;;;;;;;11.09;100.00;99478.72;4943555;28;20043;-61
2022/10/31 09:29:45;;;;;;;27.40;16.98;;;;;;;11.05;100.00;99479.00;4941923;28;20085;-62
2022/10/31 09:32:35;;;;;;;26.55;16.48;;;;;;;10.91;100.00;99479.81;4930557;29;20047;-63
2022/10/31 09:35:21;;;;;;;25.33;16.38;;;;;;;11.09;100.00;99477.88;4931626;28;20490;-62
2022/10/31 09:38:14;;;;;;;24.52;15.98;;;;;;;11.18;100.00;99476.50;4948020;28;20046;-61
2022/10/31 09:41:12;;;;;;;24.35;16.40;;;;;;;11.05;100.00;99474.59;4931417;28;21214;-62
2022/10/31 09:43:56;;;;;;;25.67;15.73;;;;;;;11.23;100.00;99476.22;4952602;28;20080;-62
2022/10/31 09:46:57;;;;;;;23.70;16.02;;;;;;;11.26;100.00;99481.28;4948700;28;20126;-62
2022/10/31 09:49:53;;;;;;;23.65;15.15;;;;;;;10.96;100.00;99475.13;4940116;28;20051;-61
2022/10/31 09:52:44;;;;;;;23.27;14.75;;;;;;;11.04;100.00;99475.53;4974299;28;20074;-61
2022/10/31 09:55:43;;;;;;;25.27;15.48;;;;;;;11.12;100.00;99472.44;4988319;28;20050;-62
2022/10/31 09:58:30;;;;;;;26.02;15.52;;;;;;;10.91;100.00;99480.66;4999748;28;20155;-62
2022/10/31 10:01:34;;;;;;;22.33;15.00;;;;;;;10.92;100.00;99478.84;5001299;28;20527;-61
2022/10/31 10:04:32;;;;;;;22.38;13.82;;;;;;;11.06;100.00;99475.44;4986512;28;20042;-62
2022/10/31 10:07:55;;;;;;;21.88;14.93;;;;;;;11.07;100.00;99477.97;4990488;28;20050;-61
2022/10/31 10:11:08;;;;;;;21.05;13.07;;;;;;;10.93;100.00;99473.56;4985538;28;20166;-61
2022/10/31 10:14:08;;;;;;;19.63;13.02;;;;;;;10.75;100.00;99477.25;4982920;28;20049;-61
2022/10/31 10:17:15;;;;;;;21.60;14.43;;;;;;;10.54;100.00;99467.88;4993642;28;20053;-60
2022/10/31 10:20:08;;;;;;;21.75;14.07;;;;;;;10.72;100.00;99473.03;4994013;28;20507;-50
2022/10/31 10:22:56;;;;;;;27.63;16.73;;;;;;;10.69;100.00;99470.59;4998326;28;20104;-53
2022/10/31 10:25:42;;;;;;;28.33;16.52;;;;;;;12.32;100.00;99464.31;4984687;28;20124;-60
2022/10/31 10:28:38;;;;;;;30.20;17.05;;;;;;;12.63;100.00;99462.25;4991496;28;20048;-58
2022/10/31 10:31:34;;;;;;;24.52;15.75;;;;;;;13.16;100.00;99471.06;4978493;28;20093;-51
2022/10/31 10:34:26;;;;;;;21.23;14.70;;;;;;;12.83;100.00;99459.28;4994904;28;20521;-51
2022/10/31 10:37:25;;;;;;;24.48;15.40;;;;;;;12.44;100.00;99460.88;4993494;28;20042;-50
2022/10/31 10:40:17;;;;;;;23.85;15.05;;;;;;;12.88;100.00;99463.28;4995536;28;20050;-42
2022/10/31 10:43:23;;;;;;;23.48;14.52;;;;;;;13.14;100.00;99454.53;4994109;28;20046;-67
2022/10/31 10:49:29;;;;;;;24.35;14.38;;;;;;;14.20;100.00;99459.56;4997298;28;20035;-49
2022/10/31 10:52:34;;;;;;;20.40;12.90;;;;;;;13.88;100.00;99453.00;4995401;28;20568;-52
2022/10/31 10:55:49;;;;;;;25.33;15.02;;;;;;;13.96;100.00;99460.34;4995128;28;20414;-49
2022/10/31 10:58:36;;;;;;;19.83;13.55;;;;;;;14.82;100.00;99448.91;4994527;28;20066;-53
2022/10/31 11:01:22;;;;;;;24.08;14.65;;;;;;;13.78;100.00;99451.03;4996297;28;20488;-52
2022/10/31 11:04:26;;;;;;;20.90;13.73;;;;;;;12.04;100.00;99445.88;4992271;28;20125;-52
2022/10/31 11:07:12;;;;;;;20.10;13.63;;;;;;;12.54;100.00;99447.97;4996095;28;20049;-48
2022/10/31 11:10:12;;;;;;;23.63;14.05;;;;;;;13.52;100.00;99447.63;4998964;28;20579;-51
2022/10/31 11:13:02;;;;;;;21.83;14.30;;;;;;;13.59;100.00;99443.63;4977249;28;20042;-52
2022/10/31 11:15:55;;;;;;;20.58;14.45;;;;;;;13.14;100.00;99447.50;4979746;28;20049;-52
2022/10/31 11:18:45;;;;;;;21.77;13.32;;;;;;;12.68;100.00;99439.16;4981042;28;20035;-51
2022/10/31 11:21:33;;;;;;;20.77;14.50;;;;;;;13.28;100.00;99443.09;4999257;28;20562;-58
2022/10/31 11:24:20;;;;;;;24.10;15.35;;;;;;;13.35;100.00;99440.88;4977948;28;20073;-53
2022/10/31 11:27:19;;;;;;;21.15;14.27;;;;;;;12.96;100.00;99446.97;4996514;28;20677;-57
2022/10/31 11:30:06;;;;;;;20.58;14.45;;;;;;;12.00;100.00;99439.13;4968010;28;21841;-54
2022/10/31 11:32:52;;;;;;;24.52;16.95;;;;;;;11.99;100.00;99444.47;4991472;28;20499;-56
2022/10/31 11:35:39;;;;;;;21.92;15.43;;;;;;;11.65;100.00;99439.56;4986309;28;20038;-55
2022/10/31 11:38:39;;;;;;;24.92;16.48;;;;;;;11.62;100.00;99445.03;4990891;28;20050;-54
2022/10/31 11:41:28;;;;;;;28.13;18.45;;;;;;;11.03;100.00;99437.13;4979929;28;20494;-51
2022/10/31 11:44:33;;;;;;;25.25;16.08;;;;;;;12.10;100.00;99428.06;4988625;28;20117;-54
2022/10/31 11:47:27;;;;;;;27.30;17.30;;;;;;;12.36;100.00;99425.50;4999959;28;20042;-50
2022/10/31 11:50:22;;;;;;;28.23;16.88;;;;;;;11.17;100.00;99422.34;4981583;28;20198;-58
2022/10/31 11:53:19;;;;;;;28.50;18.10;;;;;;;11.03;100.00;99421.38;4993135;28;20137;-61
2022/10/31 11:56:14;;;;;;;28.40;19.60;;;;;;;11.01;100.00;99428.53;4996571;28;20062;-59
2022/10/31 11:59:04;;;;;;;28.10;18.83;;;;;;;10.41;100.00;99423.19;5000772;28;20057;-60
2022/10/31 12:01:52;;;;;;;28.30;18.25;;;;;;;10.63;100.00;99424.59;4997233;28;20416;-61
2022/10/31 12:04:46;;;;;;;28.08;18.63;;;;;;;10.25;100.00;99417.16;4995125;28;20619;-60
2022/10/31 12:07:31;;;;;;;28.42;18.50;;;;;;;10.07;100.00;99415.47;5000600;28;20066;-60
2022/10/31 12:10:21;;;;;;;31.80;19.95;;;;;;;10.46;100.00;99410.72;4995586;28;20042;-59
2022/10/31 12:13:33;;;;;;;30.80;20.27;;;;;;;10.65;100.00;99414.03;4997617;28;20382;-57
2022/10/31 12:16:31;;;;;;;34.63;21.67;;;;;;;10.99;100.00;99412.03;4980575;28;20105;-59
2022/10/31 12:19:39;;;;;;;34.17;22.30;;;;;;;10.72;100.00;99410.97;4994678;28;20493;-53
2022/10/31 12:22:58;;;;;;;34.78;21.83;;;;;;;10.54;100.00;99412.88;4980928;28;20902;-59
2022/10/31 12:25:53;;;;;;;35.45;22.20;;;;;;;10.61;100.00;99407.31;4987696;28;20439;-58
2022/10/31 12:28:48;;;;;;;30.20;20.15;;;;;;;10.43;100.00;99410.03;4999767;28;20038;-60
2022/10/31 12:31:54;;;;;;;32.33;21.83;;;;;;;10.31;100.00;99408.94;4996594;28;20049;-59
2022/10/31 12:34:52;;;;;;;33.47;20.70;;;;;;;9.94;100.00;99410.09;4993296;28;20181;-60
2022/10/31 12:37:52;;;;;;;29.35;20.35;;;;;;;9.97;100.00;99409.91;4994112;28;20816;-59
2022/10/31 12:40:42;;;;;;;34.50;22.58;;;;;;;10.19;100.00;99406.09;5000103;28;20176;-59
2022/10/31 12:43:35;;;;;;;37.97;23.13;;;;;;;10.14;100.00;99407.28;4995935;28;20510;-59
2022/10/31 12:46:20;;;;;;;36.72;22.67;;;;;;;10.15;100.00;99401.13;4993261;28;20493;-54
2022/10/31 12:49:10;;;;;;;41.97;23.48;;;;;;;10.22;100.00;99405.06;4996526;28;20065;-51
2022/10/31 12:52:13;;;;;;;32.95;22.08;;;;;;;10.48;100.00;99405.38;4995235;28;20134;-54
2022/10/31 12:55:26;;;;;;;38.03;23.50;;;;;;;10.24;100.00;99397.97;4998561;28;20124;-61
2022/10/31 12:58:21;;;;;;;45.25;25.33;;;;;;;10.54;100.00;99393.72;4981209;28;20099;-55
2022/10/31 13:01:16;;;;;;;39.17;23.15;;;;;;;10.34;100.00;99398.28;4989673;28;20133;-60
2022/10/31 13:04:18;;;;;;;32.67;20.77;;;;;;;10.36;100.00;99396.44;4982056;28;20046;-59
2022/10/31 13:07:22;;;;;;;35.92;22.55;;;;;;;9.94;100.00;99396.19;4992904;28;20062;-56
2022/10/31 13:10:22;;;;;;;36.85;21.80;;;;;;;10.02;100.00;99396.56;4994322;28;20112;-58
2022/10/31 13:13:31;;;;;;;34.00;22.33;;;;;;;10.10;100.00;99394.38;4998847;28;20092;-57
2022/10/31 13:16:21;;;;;;;36.85;22.48;;;;;;;9.83;100.00;99394.13;4993921;28;20489;-59
2022/10/31 13:19:11;;;;;;;36.38;22.55;;;;;;;9.81;100.00;99382.94;4994224;28;20053;-59